createdAt,value
2022-11-26T00:00:58.947Z,96272.50
2022-11-26T00:03:25.447Z,96272.16
2022-11-26T00:05:54.346Z,96276.22
2022-11-26T00:08:23.484Z,96275.34
2022-11-26T00:10:51.329Z,96274.69
2022-11-26T00:13:19.672Z,96285.34
2022-11-26T00:15:46.147Z,96270.97
2022-11-26T00:18:13.956Z,96274.25
2022-11-26T00:20:40.528Z,96272.16
2022-11-26T00:23:06.982Z,96265.91
2022-11-26T00:25:38.895Z,96274.75
2022-11-26T00:28:20.467Z,96269.53
2022-11-26T00:30:46.883Z,96266.06
2022-11-26T00:33:13.264Z,96278.66
2022-11-26T00:35:39.728Z,96286.31
2022-11-26T00:38:06.150Z,96277.28
2022-11-26T00:40:33.360Z,96282.84
2022-11-26T00:43:01.796Z,96281.06
2022-11-26T00:45:30.126Z,96287.28
2022-11-26T00:47:59.531Z,96277.94
2022-11-26T00:50:26.808Z,96287.75
2022-11-26T00:52:54.918Z,96291.03
2022-11-26T00:55:26.405Z,96284.13
2022-11-26T00:57:52.809Z,96289.38
2022-11-26T01:00:21.060Z,96285.28
2022-11-26T01:02:47.834Z,96286.13
2022-11-26T01:05:14.617Z,96281.69
2022-11-26T01:07:41.304Z,96283.50
2022-11-26T01:10:14.412Z,96283.50
2022-11-26T01:12:40.871Z,96285.09
2022-11-26T01:15:07.408Z,96287.03
2022-11-26T01:17:33.790Z,96287.56
2022-11-26T01:20:00.176Z,96284.44
2022-11-26T01:22:26.594Z,96284.13
2022-11-26T01:24:52.967Z,96283.53
2022-11-26T01:27:20.645Z,96281.59
2022-11-26T01:29:47.446Z,96285.81
2022-11-26T01:32:13.904Z,96288.28
2022-11-26T01:34:40.583Z,96292.06
2022-11-26T01:37:11.243Z,96291.22
2022-11-26T01:39:37.634Z,96291.22
2022-11-26T01:42:06.853Z,96291.53
2022-11-26T01:44:34.441Z,96299.56
2022-11-26T01:47:01.289Z,96301.50
2022-11-26T01:49:29.278Z,96304.66
2022-11-26T01:52:04.925Z,96296.94
2022-11-26T01:54:32.486Z,96302.53
2022-11-26T01:57:06.396Z,96306.78
2022-11-26T01:59:34.732Z,96307.78
2022-11-26T02:02:01.352Z,96319.88
2022-11-26T02:04:31.142Z,96322.03
2022-11-26T02:06:57.631Z,96319.28
2022-11-26T02:09:25.174Z,96332.66
2022-11-26T02:11:51.621Z,96321.84
2022-11-26T02:14:20.770Z,96323.78
2022-11-26T02:16:53.171Z,96328.53
2022-11-26T02:19:38.279Z,96329.50
2022-11-26T02:22:10.478Z,96327.53
2022-11-26T02:24:50.575Z,96331.78
2022-11-26T02:27:34.204Z,96329.84
2022-11-26T02:30:03.222Z,96332.31
2022-11-26T02:32:34.128Z,96328.41
2022-11-26T02:35:00.590Z,96336.94
2022-11-26T02:37:33.832Z,96343.81
2022-11-26T02:40:00.220Z,96338.56
2022-11-26T02:42:34.125Z,96341.19
2022-11-26T02:45:26.719Z,96335.00
2022-11-26T02:47:54.730Z,96345.16
2022-11-26T02:50:27.134Z,96336.94
2022-11-26T02:52:55.014Z,96349.97
2022-11-26T02:55:22.695Z,96350.97
2022-11-26T02:57:50.287Z,96359.13
2022-11-26T03:00:17.389Z,96349.97
2022-11-26T03:02:49.895Z,96350.97
2022-11-26T03:05:17.609Z,96356.34
2022-11-26T03:07:46.539Z,96360.59
2022-11-26T03:10:13.702Z,96356.34
2022-11-26T03:12:40.104Z,96351.94
2022-11-26T03:15:07.569Z,96359.13
2022-11-26T03:17:34.007Z,96351.59
2022-11-26T03:20:00.532Z,96350.91
2022-11-26T03:22:26.945Z,96356.16
2022-11-26T03:24:53.357Z,96356.94
2022-11-26T03:27:19.738Z,96349.78
2022-11-26T03:29:46.183Z,96354.34
2022-11-26T03:32:12.593Z,96358.09
2022-11-26T03:34:39.217Z,96356.13
2022-11-26T03:37:05.786Z,96365.56
2022-11-26T03:39:32.162Z,96358.81
2022-11-26T03:41:58.571Z,96359.31
2022-11-26T03:44:24.973Z,96359.31
2022-11-26T03:46:51.333Z,96360.94
2022-11-26T03:49:17.822Z,96362.63
2022-11-26T03:51:44.226Z,96359.00
2022-11-26T03:54:10.813Z,96363.66
2022-11-26T03:56:37.217Z,96359.56
2022-11-26T03:59:03.580Z,96356.66
2022-11-26T04:01:30.176Z,96364.38
2022-11-26T04:03:56.634Z,96361.06
2022-11-26T04:06:23.018Z,96365.31
2022-11-26T04:08:49.427Z,96364.00
2022-11-26T04:11:15.818Z,96368.56
2022-11-26T04:13:42.272Z,96366.94
2022-11-26T04:16:08.773Z,96374.94
2022-11-26T04:18:35.308Z,96379.06
2022-11-26T04:21:01.821Z,96378.75
2022-11-26T04:23:28.193Z,96379.41
2022-11-26T04:25:54.596Z,96384.97
2022-11-26T04:28:20.983Z,96380.53
2022-11-26T04:30:47.392Z,96383.81
2022-11-26T04:33:14.132Z,96387.28
2022-11-26T04:35:40.533Z,96389.41
2022-11-26T04:38:07.040Z,96385.00
2022-11-26T04:40:33.421Z,96388.91
2022-11-26T04:42:59.858Z,96391.84
2022-11-26T04:45:26.526Z,96388.09
2022-11-26T04:47:53.404Z,96391.41
2022-11-26T04:50:19.828Z,96400.22
2022-11-26T04:52:48.549Z,96394.44
2022-11-26T04:55:15.767Z,96396.13
2022-11-26T04:57:42.177Z,96393.34
2022-11-26T05:00:09.281Z,96398.25
2022-11-26T05:02:35.694Z,96391.25
2022-11-26T05:05:02.167Z,96401.72
2022-11-26T05:07:28.599Z,96399.09
2022-11-26T05:09:55.021Z,96402.66
2022-11-26T05:12:21.387Z,96406.28
2022-11-26T05:14:47.774Z,96403.50
2022-11-26T05:17:14.221Z,96411.88
2022-11-26T05:19:40.633Z,96403.72
2022-11-26T05:22:07.117Z,96409.94
2022-11-26T05:24:33.485Z,96410.22
2022-11-26T05:26:59.908Z,96412.84
2022-11-26T05:29:26.375Z,96413.81
2022-11-26T05:31:52.839Z,96419.22
2022-11-26T05:34:19.254Z,96413.00
2022-11-26T05:36:45.667Z,96424.31
2022-11-26T05:39:12.098Z,96423.31
2022-11-26T05:41:38.584Z,96423.03
2022-11-26T05:44:05.191Z,96429.38
2022-11-26T05:46:31.669Z,96428.88
2022-11-26T05:48:58.093Z,96430.53
2022-11-26T05:51:24.477Z,96433.78
2022-11-26T05:53:50.855Z,96436.72
2022-11-26T05:56:17.238Z,96436.03
2022-11-26T05:58:43.632Z,96443.91
2022-11-26T06:01:10.325Z,96446.25
2022-11-26T06:03:37.491Z,96449.66
2022-11-26T06:06:04.314Z,96457.53
2022-11-26T06:08:30.730Z,96455.06
2022-11-26T06:10:57.193Z,96461.13
2022-11-26T06:13:23.579Z,96467.72
2022-11-26T06:15:49.960Z,96465.09
2022-11-26T06:18:17.355Z,96475.69
2022-11-26T06:20:44.046Z,96467.19
2022-11-26T06:23:10.526Z,96475.69
2022-11-26T06:25:39.391Z,96465.53
2022-11-26T06:28:05.866Z,96472.44
2022-11-26T06:30:32.329Z,96473.41
2022-11-26T06:32:58.736Z,96472.59
2022-11-26T06:35:25.374Z,96473.25
2022-11-26T06:37:51.799Z,96478.31
2022-11-26T06:40:19.903Z,96478.19
2022-11-26T06:42:53.374Z,96482.28
2022-11-26T06:45:20.944Z,96481.19
2022-11-26T06:47:47.989Z,96480.72
2022-11-26T06:50:15.014Z,96484.00
2022-11-26T06:52:41.498Z,96482.00
2022-11-26T06:55:08.116Z,96490.09
2022-11-26T06:57:34.521Z,96483.88
2022-11-26T07:00:00.982Z,96479.47
2022-11-26T07:02:27.698Z,96487.00
2022-11-26T07:04:54.196Z,96500.78
2022-11-26T07:07:20.685Z,96498.31
2022-11-26T07:09:47.135Z,96505.19
2022-11-26T07:12:13.552Z,96496.16
2022-11-26T07:14:40.171Z,96501.47
2022-11-26T07:17:06.821Z,96491.59
2022-11-26T07:19:33.194Z,96498.16
2022-11-26T07:21:59.663Z,96505.88
2022-11-26T07:24:26.042Z,96511.63
2022-11-26T07:26:52.499Z,96515.91
2022-11-26T07:29:18.895Z,96512.00
2022-11-26T07:31:45.381Z,96518.28
2022-11-26T07:34:12.055Z,96526.16
2022-11-26T07:36:43.050Z,96525.94
2022-11-26T07:39:10.765Z,96523.47
2022-11-26T07:41:37.265Z,96531.31
2022-11-26T07:44:03.652Z,96533.13
2022-11-26T07:46:30.084Z,96542.19
2022-11-26T07:48:56.593Z,96540.59
2022-11-26T07:51:24.489Z,96554.75
2022-11-26T07:53:52.082Z,96548.69
2022-11-26T07:56:18.868Z,96541.34
2022-11-26T07:58:45.744Z,96542.69
2022-11-26T08:01:13.820Z,96545.69
2022-11-26T08:03:41.107Z,96547.63
2022-11-26T08:06:08.933Z,96545.69
2022-11-26T08:08:35.689Z,96536.16
2022-11-26T08:11:02.793Z,96547.47
2022-11-26T08:13:29.219Z,96544.72
2022-11-26T08:15:55.643Z,96547.69
2022-11-26T08:18:22.151Z,96544.75
2022-11-26T08:20:55.824Z,96546.78
2022-11-26T08:23:22.408Z,96555.44
2022-11-26T08:26:14.179Z,96544.84
2022-11-26T08:28:35.421Z,96547.53
2022-11-26T08:31:05.708Z,96556.69
2022-11-26T08:33:32.636Z,96554.09
2022-11-26T08:36:06.997Z,96548.84
2022-11-26T08:38:34.422Z,96561.00
2022-11-26T08:41:01.513Z,96562.19
2022-11-26T08:43:45.327Z,96566.66
2022-11-26T08:46:14.448Z,96558.81
2022-11-26T08:48:41.230Z,96557.06
2022-11-26T08:51:09.514Z,96555.47
2022-11-26T08:53:36.847Z,96557.34
2022-11-26T08:56:07.314Z,96565.94
2022-11-26T08:58:34.312Z,96561.69
2022-11-26T09:01:07.023Z,96557.47
2022-11-26T09:03:33.494Z,96558.78
2022-11-26T09:06:05.629Z,96562.59
2022-11-26T09:08:34.658Z,96555.25
2022-11-26T09:11:01.037Z,96557.88
2022-11-26T09:13:27.409Z,96568.34
2022-11-26T09:15:53.840Z,96565.06
2022-11-26T09:18:20.214Z,96553.59
2022-11-26T09:20:46.587Z,96559.81
2022-11-26T09:23:13.084Z,96551.94
2022-11-26T09:25:40.185Z,96564.03
2022-11-26T09:28:06.694Z,96557.47
2022-11-26T09:30:33.697Z,96559.44
2022-11-26T09:33:00.171Z,96555.13
2022-11-26T09:35:26.610Z,96560.38
2022-11-26T09:37:52.999Z,96559.06
2022-11-26T09:40:19.869Z,96556.78
2022-11-26T09:42:46.233Z,96560.34
2022-11-26T09:45:31.635Z,96562.31
2022-11-26T09:47:58.815Z,96565.25
2022-11-26T09:50:31.627Z,96568.03
2022-11-26T09:53:25.662Z,96566.59
2022-11-26T09:55:53.435Z,96568.25
2022-11-26T09:58:27.017Z,96565.69
2022-11-26T10:00:55.399Z,96566.50
2022-11-26T10:03:23.704Z,96565.06
2022-11-26T10:05:50.106Z,96571.84
2022-11-26T10:08:24.066Z,96572.03
2022-11-26T10:10:50.622Z,96559.75
2022-11-26T10:13:43.124Z,96564.84
2022-11-26T10:16:09.523Z,96569.47
2022-11-26T10:18:40.636Z,96567.69
2022-11-26T10:21:14.497Z,96575.09
2022-11-26T10:23:46.912Z,96561.50
2022-11-26T10:26:19.675Z,96570.16
2022-11-26T10:28:50.159Z,96572.47
2022-11-26T10:31:36.867Z,96572.81
2022-11-26T10:34:05.708Z,96571.34
2022-11-26T10:36:42.353Z,96575.31
2022-11-26T10:39:13.214Z,96573.84
2022-11-26T10:41:39.679Z,96573.69
2022-11-26T10:44:25.147Z,96565.97
2022-11-26T10:46:51.594Z,96564.31
2022-11-26T10:49:24.239Z,96569.91
2022-11-26T10:51:52.067Z,96557.09
2022-11-26T10:54:24.110Z,96561.53
2022-11-26T10:56:53.315Z,96564.81
2022-11-26T10:59:22.725Z,96569.56
2022-11-26T11:01:52.898Z,96568.59
2022-11-26T11:04:31.848Z,96573.38
2022-11-26T11:06:58.676Z,96566.63
2022-11-26T11:09:27.003Z,96568.91
2022-11-26T11:12:11.833Z,96566.97
2022-11-26T11:14:42.991Z,96565.16
2022-11-26T11:17:24.008Z,96558.41
2022-11-26T11:19:50.420Z,96569.25
2022-11-26T11:22:23.026Z,96564.31
2022-11-26T11:24:49.442Z,96572.53
2022-11-26T11:27:27.115Z,96566.91
2022-11-26T11:29:53.586Z,96575.34
2022-11-26T11:32:32.678Z,96571.22
2022-11-26T11:35:11.560Z,96574.88
2022-11-26T11:37:47.653Z,96573.88
2022-11-26T11:40:17.219Z,96565.78
2022-11-26T11:42:47.934Z,96565.44
2022-11-26T11:45:21.270Z,96574.53
2022-11-26T11:47:57.167Z,96575.16
2022-11-26T11:50:39.162Z,96577.28
2022-11-26T11:53:24.344Z,96575.00
2022-11-26T11:56:03.089Z,96576.16
2022-11-26T11:58:53.087Z,96579.13
2022-11-26T12:01:22.540Z,96571.75
2022-11-26T12:03:49.975Z,96577.00
2022-11-26T12:06:16.331Z,96577.50
2022-11-26T12:08:58.594Z,96572.84
2022-11-26T12:11:30.122Z,96578.63
2022-11-26T12:13:59.847Z,96579.78
2022-11-26T12:16:29.116Z,96582.41
2022-11-26T12:19:00.706Z,96576.66
2022-11-26T12:21:31.287Z,96583.38
2022-11-26T12:24:16.848Z,96578.78
2022-11-26T12:26:48.531Z,96574.19
2022-11-26T12:29:33.418Z,96579.91
2022-11-26T12:32:07.251Z,96579.91
2022-11-26T12:34:35.991Z,96578.94
2022-11-26T12:37:04.385Z,96586.00
2022-11-26T12:39:36.675Z,96586.00
2022-11-26T12:42:23.467Z,96578.81
2022-11-26T12:44:51.818Z,96582.75
2022-11-26T12:47:26.617Z,96574.19
2022-11-26T12:50:11.520Z,96584.38
2022-11-26T12:52:42.118Z,96577.13
2022-11-26T12:55:20.788Z,96577.28
2022-11-26T12:57:47.151Z,96577.81
2022-11-26T13:00:15.857Z,96576.50
2022-11-26T13:02:43.675Z,96584.38
2022-11-26T13:05:20.685Z,96578.81
2022-11-26T13:07:58.590Z,96570.91
2022-11-26T13:10:25.022Z,96575.00
2022-11-26T13:13:00.530Z,96574.50
2022-11-26T13:15:33.467Z,96577.50
2022-11-26T13:18:00.800Z,96574.88
2022-11-26T13:20:46.013Z,96578.47
2022-11-26T13:23:22.630Z,96569.25
2022-11-26T13:25:49.059Z,96582.06
2022-11-26T13:28:45.220Z,96586.34
2022-11-26T13:31:30.186Z,96581.06
2022-11-26T13:33:56.542Z,96591.16
2022-11-26T13:36:22.935Z,96589.16
2022-11-26T13:38:49.370Z,96597.69
2022-11-26T13:41:18.791Z,96580.94
2022-11-26T13:43:56.787Z,96591.28
2022-11-26T13:46:33.400Z,96584.38
2022-11-26T13:49:07.227Z,96584.03
2022-11-26T13:51:36.638Z,96592.59
2022-11-26T13:54:06.037Z,96591.94
2022-11-26T13:56:34.135Z,96584.72
2022-11-26T13:59:04.176Z,96589.63
2022-11-26T14:01:40.599Z,96593.75
2022-11-26T14:04:14.978Z,96603.09
2022-11-26T14:06:59.946Z,96603.09
2022-11-26T14:09:41.900Z,96606.75
2022-11-26T14:12:15.275Z,96618.09
2022-11-26T14:14:42.887Z,96612.16
2022-11-26T14:17:13.885Z,96613.13
2022-11-26T14:19:40.229Z,96614.31
2022-11-26T14:22:09.496Z,96612.63
2022-11-26T14:24:53.370Z,96615.78
2022-11-26T14:27:43.163Z,96620.88
2022-11-26T14:30:15.548Z,96619.25
2022-11-26T14:32:54.218Z,96622.66
2022-11-26T14:35:40.843Z,96633.19
2022-11-26T14:38:21.646Z,96627.13
2022-11-26T14:40:55.717Z,96633.34
2022-11-26T14:43:22.770Z,96627.59
2022-11-26T14:46:00.826Z,96638.28
2022-11-26T14:48:28.707Z,96633.03
2022-11-26T14:50:57.080Z,96642.88
2022-11-26T14:53:25.220Z,96643.72
2022-11-26T14:55:52.186Z,96646.50
2022-11-26T14:58:19.957Z,96644.22
2022-11-26T15:01:00.956Z,96642.88
2022-11-26T15:03:27.544Z,96652.38
2022-11-26T15:05:53.971Z,96644.34
2022-11-26T15:08:23.795Z,96650.38
2022-11-26T15:11:01.662Z,96654.34
2022-11-26T15:13:32.941Z,96655.97
2022-11-26T15:16:03.747Z,96656.31
2022-11-26T15:18:31.615Z,96652.72
2022-11-26T15:20:58.924Z,96652.72
2022-11-26T15:23:29.716Z,96658.75
2022-11-26T15:25:57.489Z,96653.66
2022-11-26T15:28:24.397Z,96654.00
2022-11-26T15:30:56.961Z,96658.25
2022-11-26T15:33:24.137Z,96658.13
2022-11-26T15:35:56.869Z,96651.38
2022-11-26T15:38:30.809Z,96661.88
2022-11-26T15:40:57.249Z,96660.38
2022-11-26T15:43:23.722Z,96662.22
2022-11-26T15:45:51.808Z,96669.09
2022-11-26T15:48:54.706Z,96661.72
2022-11-26T15:51:37.366Z,96671.28
2022-11-26T15:54:06.228Z,96677.00
2022-11-26T15:56:34.961Z,96670.44
2022-11-26T15:59:03.111Z,96672.06
2022-11-26T16:01:32.509Z,96666.81
2022-11-26T16:04:06.221Z,96668.94
2022-11-26T16:06:34.435Z,96666.13
2022-11-26T16:09:01.739Z,96669.25
2022-11-26T16:11:28.972Z,96674.00
2022-11-26T16:13:55.357Z,96676.28
2022-11-26T16:16:23.505Z,96672.53
2022-11-26T16:18:49.864Z,96678.75
2022-11-26T16:21:24.240Z,96675.94
2022-11-26T16:23:53.841Z,96678.59
2022-11-26T16:26:20.232Z,96674.00
2022-11-26T16:28:47.529Z,96681.88
2022-11-26T16:31:14.936Z,96675.94
2022-11-26T16:33:41.868Z,96680.88
2022-11-26T16:36:22.064Z,96676.78
2022-11-26T16:38:48.730Z,96682.19
2022-11-26T16:41:15.965Z,96681.22
2022-11-26T16:43:42.446Z,96680.09
2022-11-26T16:46:20.115Z,96675.63
2022-11-26T16:48:47.313Z,96678.09
2022-11-26T16:51:14.004Z,96684.19
2022-11-26T16:53:40.789Z,96677.59
2022-11-26T16:56:14.376Z,96688.09
2022-11-26T16:58:40.773Z,96685.34
2022-11-26T17:01:07.164Z,96690.59
2022-11-26T17:03:33.783Z,96693.22
2022-11-26T17:06:03.018Z,96690.09
2022-11-26T17:08:30.158Z,96699.56
2022-11-26T17:10:56.925Z,96692.66
2022-11-26T17:13:23.396Z,96690.69
2022-11-26T17:15:50.598Z,96694.13
2022-11-26T17:18:21.212Z,96692.31
2022-11-26T17:20:48.002Z,96685.09
2022-11-26T17:23:14.821Z,96688.56
2022-11-26T17:25:43.086Z,96697.91
2022-11-26T17:28:13.015Z,96691.53
2022-11-26T17:30:40.041Z,96681.19
2022-11-26T17:33:07.141Z,96688.56
2022-11-26T17:35:33.558Z,96691.34
2022-11-26T17:37:59.972Z,96689.38
2022-11-26T17:40:27.146Z,96694.78
2022-11-26T17:42:54.708Z,96695.94
2022-11-26T17:45:21.396Z,96700.75
2022-11-26T17:47:48.188Z,96696.16
2022-11-26T17:50:24.983Z,96697.81
2022-11-26T17:52:51.809Z,96704.53
2022-11-26T17:55:18.874Z,96704.22
2022-11-26T17:57:45.280Z,96707.22
2022-11-26T18:00:16.421Z,96704.28
2022-11-26T18:02:43.867Z,96706.22
2022-11-26T18:05:11.158Z,96701.59
2022-11-26T18:07:38.440Z,96696.66
2022-11-26T18:10:06.036Z,96696.97
2022-11-26T18:12:32.533Z,96691.41
2022-11-26T18:14:59.121Z,96705.53
2022-11-26T18:17:25.547Z,96699.28
2022-11-26T18:19:52.179Z,96707.84
2022-11-26T18:22:19.764Z,96697.00
2022-11-26T18:24:57.262Z,96710.47
2022-11-26T18:27:25.353Z,96710.47
2022-11-26T18:29:51.714Z,96707.69
2022-11-26T18:32:18.270Z,96711.13
2022-11-26T18:34:44.928Z,96702.25
2022-11-26T18:37:12.384Z,96714.09
2022-11-26T18:39:39.262Z,96717.16
2022-11-26T18:42:35.510Z,96711.09
2022-11-26T18:44:52.654Z,96709.94
2022-11-26T18:47:19.239Z,96714.09
2022-11-26T18:49:47.662Z,96713.09
2022-11-26T18:52:14.335Z,96717.34
2022-11-26T18:54:40.817Z,96718.19
2022-11-26T18:57:07.204Z,96725.91
2022-11-26T18:59:33.608Z,96720.50
2022-11-26T19:02:00.017Z,96728.88
2022-11-26T19:04:26.480Z,96723.94
2022-11-26T19:06:52.854Z,96726.06
2022-11-26T19:09:20.516Z,96729.22
2022-11-26T19:11:47.717Z,96732.84
2022-11-26T19:14:14.779Z,96730.88
2022-11-26T19:16:42.484Z,96730.19
2022-11-26T19:19:09.395Z,96737.94
2022-11-26T19:21:36.128Z,96739.06
2022-11-26T19:24:04.300Z,96743.50
2022-11-26T19:26:30.978Z,96738.09
2022-11-26T19:29:00.789Z,96736.25
2022-11-26T19:31:27.174Z,96743.34
2022-11-26T19:33:54.789Z,96735.91
2022-11-26T19:36:22.157Z,96730.81
2022-11-26T19:38:53.580Z,96734.13
2022-11-26T19:41:25.283Z,96731.31
2022-11-26T19:43:52.191Z,96730.16
2022-11-26T19:46:19.895Z,96741.50
2022-11-26T19:48:47.205Z,96732.13
2022-11-26T19:51:14.124Z,96743.25
2022-11-26T19:53:40.928Z,96749.50
2022-11-26T19:56:27.647Z,96755.06
2022-11-26T19:58:54.426Z,96761.81
2022-11-26T20:01:21.773Z,96752.28
2022-11-26T20:03:48.366Z,96755.72
2022-11-26T20:06:16.660Z,96754.75
2022-11-26T20:08:43.514Z,96759.03
2022-11-26T20:11:10.633Z,96755.09
2022-11-26T20:13:38.516Z,96758.69
2022-11-26T20:16:09.013Z,96758.41
2022-11-26T20:18:36.736Z,96763.66
2022-11-26T20:21:04.959Z,96760.69
2022-11-26T20:23:31.427Z,96760.53
2022-11-26T20:25:57.794Z,96756.75
2022-11-26T20:28:24.158Z,96760.38
2022-11-26T20:30:51.085Z,96758.84
2022-11-26T20:33:18.913Z,96753.75
2022-11-26T20:35:45.801Z,96762.97
2022-11-26T20:38:12.588Z,96768.34
2022-11-26T20:40:40.324Z,96770.84
2022-11-26T20:43:06.781Z,96761.50
2022-11-26T20:45:33.310Z,96769.88
2022-11-26T20:47:59.754Z,96774.97
2022-11-26T20:50:26.116Z,96781.59
2022-11-26T20:52:52.586Z,96778.63
2022-11-26T20:55:21.915Z,96781.78
2022-11-26T20:57:48.835Z,96779.81
2022-11-26T21:00:17.146Z,96779.81
2022-11-26T21:02:44.034Z,96778.19
2022-11-26T21:05:10.472Z,96775.69
2022-11-26T21:07:36.886Z,96773.22
2022-11-26T21:10:03.474Z,96775.69
2022-11-26T21:12:29.897Z,96776.53
2022-11-26T21:14:56.290Z,96768.97
2022-11-26T21:17:22.917Z,96771.91
2022-11-26T21:19:49.418Z,96775.81
2022-11-26T21:22:15.889Z,96778.75
2022-11-26T21:24:42.294Z,96783.97
2022-11-26T21:27:08.758Z,96787.00
2022-11-26T21:29:35.192Z,96785.50
2022-11-26T21:32:01.717Z,96782.44
2022-11-26T21:34:28.100Z,96795.09
2022-11-26T21:36:54.495Z,96791.28
2022-11-26T21:39:20.891Z,96808.19
2022-11-26T21:41:47.285Z,96807.88
2022-11-26T21:44:13.663Z,96805.59
2022-11-26T21:46:40.348Z,96805.75
2022-11-26T21:49:06.995Z,96804.56
2022-11-26T21:51:33.394Z,96812.59
2022-11-26T21:53:59.902Z,96810.34
2022-11-26T21:56:30.594Z,96814.75
2022-11-26T21:58:57.930Z,96812.59
2022-11-26T22:01:26.360Z,96820.31
2022-11-26T22:03:54.481Z,96813.94
2022-11-26T22:06:21.732Z,96819.72
2022-11-26T22:08:48.506Z,96819.72
2022-11-26T22:11:16.367Z,96806.88
2022-11-26T22:13:42.751Z,96813.13
2022-11-26T22:16:10.570Z,96811.16
2022-11-26T22:18:37.756Z,96814.47
2022-11-26T22:21:04.684Z,96809.22
2022-11-26T22:23:31.119Z,96811.84
2022-11-26T22:25:57.558Z,96814.31
2022-11-26T22:28:29.721Z,96815.00
2022-11-26T22:30:56.508Z,96818.06
2022-11-26T22:33:22.926Z,96819.97
2022-11-26T22:35:49.348Z,96818.63
2022-11-26T22:38:15.898Z,96827.84
2022-11-26T22:40:42.302Z,96825.88
2022-11-26T22:43:08.702Z,96818.69
2022-11-26T22:45:36.708Z,96822.78
2022-11-26T22:48:03.135Z,96817.53
2022-11-26T22:50:29.493Z,96815.75
2022-11-26T22:52:55.949Z,96825.25
2022-11-26T22:55:23.362Z,96826.25
2022-11-26T22:57:49.758Z,96823.63
2022-11-26T23:00:36.296Z,96818.38
2022-11-26T23:03:02.785Z,96818.69
2022-11-26T23:05:29.239Z,96817.34
2022-11-26T23:07:55.793Z,96817.34
2022-11-26T23:10:22.235Z,96818.16
2022-11-26T23:12:48.606Z,96823.41
2022-11-26T23:15:15.043Z,96833.09
2022-11-26T23:17:41.438Z,96825.38
2022-11-26T23:20:08.062Z,96830.63
2022-11-26T23:22:34.444Z,96831.47
2022-11-26T23:25:00.831Z,96838.34
2022-11-26T23:27:27.195Z,96838.03
2022-11-26T23:29:53.697Z,96840.53
2022-11-26T23:32:20.051Z,96838.88
2022-11-26T23:34:48.147Z,96839.69
2022-11-26T23:37:14.559Z,96842.66
2022-11-26T23:39:41.093Z,96834.69
2022-11-26T23:42:07.660Z,96837.09
2022-11-26T23:44:34.093Z,96827.25
2022-11-26T23:47:00.510Z,96827.78
2022-11-26T23:49:26.883Z,96832.88
2022-11-26T23:51:53.268Z,96832.06
2022-11-26T23:54:19.688Z,96834.53
2022-11-26T23:56:46.284Z,96831.25
2022-11-26T23:59:12.702Z,96826.97
